createdAt,value
2023-04-22T00:02:19.691Z,8.33
2023-04-22T00:04:48.761Z,7.40
2023-04-22T00:07:18.386Z,7.87
2023-04-22T00:09:48.604Z,7.20
2023-04-22T00:12:17.342Z,7.50
2023-04-22T00:14:46.054Z,7.30
2023-04-22T00:17:14.851Z,6.40
2023-04-22T00:19:44.746Z,6.73
2023-04-22T00:22:13.429Z,6.97
2023-04-22T00:24:42.183Z,6.43
2023-04-22T00:27:12.422Z,6.93
2023-04-22T00:29:41.429Z,6.87
2023-04-22T00:32:10.301Z,8.10
2023-04-22T00:34:39.046Z,7.53
2023-04-22T00:37:07.851Z,7.20
2023-04-22T00:39:39.789Z,6.67
2023-04-22T00:42:09.224Z,7.10
2023-04-22T00:44:39.755Z,6.67
2023-04-22T00:47:09.123Z,9.53
2023-04-22T00:49:38.745Z,6.60
2023-04-22T00:52:08.118Z,6.97
2023-04-22T00:54:37.489Z,7.77
2023-04-22T00:57:07.308Z,7.27
2023-04-22T00:59:36.748Z,6.87
2023-04-22T01:02:08.305Z,7.57
2023-04-22T01:04:37.860Z,6.90
2023-04-22T01:07:06.885Z,7.03
2023-04-22T01:09:36.223Z,7.30
2023-04-22T01:12:05.221Z,8.37
2023-04-22T01:14:34.090Z,6.90
2023-04-22T01:17:03.385Z,6.80
2023-04-22T01:19:33.911Z,6.90
2023-04-22T01:22:03.521Z,6.67
2023-04-22T01:24:35.271Z,7.10
2023-04-22T01:27:04.133Z,7.00
2023-04-22T01:29:33.254Z,6.40
2023-04-22T01:32:03.076Z,6.43
2023-04-22T01:34:32.482Z,6.20
2023-04-22T01:37:01.466Z,6.50
2023-04-22T01:39:32.453Z,6.13
2023-04-22T01:42:02.301Z,6.07
2023-04-22T01:44:31.147Z,5.90
2023-04-22T01:46:59.925Z,6.53
2023-04-22T01:49:29.577Z,7.30
2023-04-22T01:51:59.373Z,6.17
2023-04-22T01:54:28.295Z,5.73
2023-04-22T01:56:58.826Z,5.37
2023-04-22T01:59:27.652Z,6.30
2023-04-22T02:01:56.488Z,5.30
2023-04-22T02:04:25.303Z,5.57
2023-04-22T02:06:54.103Z,5.30
2023-04-22T02:09:22.904Z,5.07
2023-04-22T02:11:52.593Z,5.73
2023-04-22T02:14:24.942Z,5.97
2023-04-22T02:16:54.604Z,5.43
2023-04-22T02:19:23.456Z,5.27
2023-04-22T02:21:52.242Z,4.77
2023-04-22T02:24:20.976Z,4.43
2023-04-22T02:26:49.913Z,5.60
2023-04-22T02:29:18.852Z,4.93
2023-04-22T02:31:50.732Z,4.80
2023-04-22T02:34:19.565Z,4.83
2023-04-22T02:36:48.712Z,4.60
2023-04-22T02:39:17.701Z,5.13
2023-04-22T02:41:46.451Z,4.87
2023-04-22T02:44:15.147Z,4.60
2023-04-22T02:46:43.960Z,6.87
2023-04-22T02:49:15.065Z,4.90
2023-04-22T02:51:43.931Z,4.63
2023-04-22T02:54:12.606Z,5.07
2023-04-22T02:56:41.378Z,5.23
2023-04-22T02:59:10.168Z,4.40
2023-04-22T03:01:38.952Z,4.90
2023-04-22T03:04:12.475Z,5.67
2023-04-22T03:06:42.851Z,4.77
2023-04-22T03:09:11.913Z,4.73
2023-04-22T03:11:40.723Z,5.10
2023-04-22T03:14:09.491Z,5.17
2023-04-22T03:16:38.840Z,5.40
2023-04-22T03:19:07.788Z,5.43
2023-04-22T03:21:36.512Z,6.20
2023-04-22T03:24:07.264Z,8.10
2023-04-22T03:26:37.364Z,5.80
2023-04-22T03:29:06.243Z,6.13
2023-04-22T03:31:35.069Z,6.00
2023-04-22T03:34:04.034Z,7.10
2023-04-22T03:36:34.038Z,6.57
2023-04-22T03:39:02.853Z,7.30
2023-04-22T03:41:34.639Z,6.03
2023-04-22T03:44:05.105Z,6.10
2023-04-22T03:46:36.023Z,6.17
2023-04-22T03:49:19.338Z,6.30
2023-04-22T03:51:48.714Z,6.97
2023-04-22T03:54:21.002Z,7.53
2023-04-22T03:56:54.766Z,6.43
2023-04-22T03:59:25.403Z,6.50
2023-04-22T04:01:54.974Z,6.77
2023-04-22T04:04:29.735Z,7.27
2023-04-22T04:07:02.656Z,7.83
2023-04-22T04:09:31.766Z,8.50
2023-04-22T04:12:03.143Z,7.90
2023-04-22T04:14:37.063Z,9.03
2023-04-22T04:17:09.701Z,9.20
2023-04-22T04:19:39.415Z,10.10
2023-04-22T04:22:08.895Z,10.57
2023-04-22T04:24:46.008Z,10.10
2023-04-22T04:27:24.221Z,9.73
2023-04-22T04:29:56.194Z,11.13
2023-04-22T04:32:38.405Z,10.40
2023-04-22T04:35:13.132Z,9.60
2023-04-22T04:37:44.841Z,11.03
2023-04-22T04:40:13.874Z,10.27
2023-04-22T04:43:08.808Z,10.33
2023-04-22T04:46:01.162Z,9.93
2023-04-22T04:48:36.318Z,9.97
2023-04-22T04:51:10.314Z,11.20
2023-04-22T04:53:44.581Z,10.40
2023-04-22T04:56:13.620Z,10.93
2023-04-22T04:58:44.624Z,10.57
2023-04-22T05:01:19.411Z,11.33
2023-04-22T05:03:49.848Z,10.77
2023-04-22T05:06:20.989Z,10.40
2023-04-22T05:08:54.973Z,10.63
2023-04-22T05:11:23.863Z,10.03
2023-04-22T05:13:58.198Z,9.70
2023-04-22T05:16:34.920Z,8.17
2023-04-22T05:19:04.274Z,8.43
2023-04-22T05:21:34.775Z,8.17
2023-04-22T05:24:03.496Z,7.40
2023-04-22T05:26:32.327Z,9.63
2023-04-22T05:29:04.078Z,7.90
2023-04-22T05:31:34.086Z,6.63
2023-04-22T05:34:03.548Z,6.83
2023-04-22T05:36:33.526Z,8.03
2023-04-22T05:39:02.343Z,8.13
2023-04-22T05:41:33.818Z,6.97
2023-04-22T05:44:04.941Z,6.83
2023-04-22T05:46:33.893Z,8.93
2023-04-22T05:49:02.953Z,7.23
2023-04-22T05:51:50.534Z,7.60
2023-04-22T05:54:22.764Z,8.70
2023-04-22T05:56:52.747Z,6.83
2023-04-22T05:59:22.954Z,8.03
2023-04-22T06:01:51.778Z,9.07
2023-04-22T06:04:22.342Z,10.73
2023-04-22T06:06:53.939Z,8.50
2023-04-22T06:09:22.912Z,7.63
2023-04-22T06:11:51.676Z,7.27
2023-04-22T06:14:20.699Z,7.57
2023-04-22T06:16:52.875Z,7.23
2023-04-22T06:19:22.086Z,7.03
2023-04-22T06:21:50.861Z,6.70
2023-04-22T06:24:19.594Z,6.77
2023-04-22T06:26:48.942Z,7.53
2023-04-22T06:29:17.796Z,7.73
2023-04-22T06:31:46.611Z,7.83
2023-04-22T06:34:16.908Z,8.10
2023-04-22T06:36:46.116Z,7.90
2023-04-22T06:39:14.805Z,7.87
2023-04-22T06:42:04.056Z,7.00
2023-04-22T06:44:43.802Z,8.20
2023-04-22T06:47:32.970Z,7.90
2023-04-22T06:50:12.057Z,8.33
2023-04-22T06:52:48.184Z,7.10
2023-04-22T06:55:17.396Z,6.80
2023-04-22T06:57:46.414Z,7.23
2023-04-22T07:00:16.156Z,7.03
2023-04-22T07:02:45.011Z,7.33
2023-04-22T07:05:15.216Z,7.33
2023-04-22T07:07:44.871Z,7.57
2023-04-22T07:10:19.271Z,7.97
2023-04-22T07:13:08.062Z,7.80
2023-04-22T07:15:36.937Z,7.33
2023-04-22T07:18:06.062Z,6.63
2023-04-22T07:20:36.272Z,7.13
2023-04-22T07:23:05.009Z,7.47
2023-04-22T07:25:33.766Z,6.70
2023-04-22T07:28:02.526Z,7.10
2023-04-22T07:30:31.302Z,7.13
2023-04-22T07:33:00.093Z,7.18
2023-04-22T07:35:29.985Z,7.72
2023-04-22T07:38:00.345Z,6.30
2023-04-22T07:40:29.212Z,6.88
2023-04-22T07:42:58.064Z,6.65
2023-04-22T07:45:26.982Z,6.78
2023-04-22T07:47:56.006Z,7.30
2023-04-22T07:50:25.038Z,7.18
2023-04-22T07:52:53.829Z,6.90
2023-04-22T07:55:24.082Z,6.57
2023-04-22T07:57:52.833Z,6.53
2023-04-22T08:00:21.661Z,6.80
2023-04-22T08:02:51.231Z,7.13
2023-04-22T08:05:20.503Z,5.75
2023-04-22T08:07:49.356Z,7.53
2023-04-22T08:10:18.090Z,7.72
2023-04-22T08:12:48.466Z,7.72
2023-04-22T08:15:17.159Z,7.80
2023-04-22T08:17:46.222Z,7.68
2023-04-22T08:20:16.530Z,8.30
2023-04-22T08:22:45.801Z,9.05
2023-04-22T08:25:14.635Z,8.15
2023-04-22T08:27:43.371Z,7.47
2023-04-22T08:30:14.374Z,7.68
2023-04-22T08:32:45.484Z,6.65
2023-04-22T08:35:14.303Z,8.63
2023-04-22T08:37:43.267Z,9.55
2023-04-22T08:40:14.558Z,8.85
2023-04-22T08:42:45.164Z,9.05
2023-04-22T08:45:15.820Z,8.85
2023-04-22T08:47:44.668Z,7.70
2023-04-22T08:50:13.700Z,7.97
2023-04-22T08:52:43.909Z,7.90
2023-04-22T08:55:12.677Z,7.70
2023-04-22T08:57:42.560Z,6.97
2023-04-22T09:00:12.327Z,5.90
2023-04-22T09:02:46.161Z,7.22
2023-04-22T09:05:15.859Z,7.07
2023-04-22T09:07:44.782Z,6.53
2023-04-22T09:10:14.284Z,7.05
2023-04-22T09:12:44.029Z,9.40
2023-04-22T09:15:14.257Z,8.57
2023-04-22T09:17:45.033Z,11.23
2023-04-22T09:20:15.527Z,10.68
2023-04-22T09:22:46.325Z,10.18
2023-04-22T09:25:19.623Z,11.40
2023-04-22T09:27:52.327Z,12.95
2023-04-22T09:30:25.887Z,11.27
2023-04-22T09:32:57.754Z,11.68
2023-04-22T09:35:31.871Z,11.70
2023-04-22T09:38:02.222Z,12.18
2023-04-22T09:40:32.295Z,11.50
2023-04-22T09:43:02.795Z,11.70
2023-04-22T09:45:33.897Z,12.88
2023-04-22T09:48:08.128Z,11.55
2023-04-22T09:50:37.696Z,11.50
2023-04-22T09:53:09.002Z,11.90
2023-04-22T09:55:41.568Z,11.48
2023-04-22T09:58:12.012Z,11.15
2023-04-22T10:00:43.894Z,12.50
2023-04-22T10:03:14.338Z,12.05
2023-04-22T10:05:45.735Z,11.38
2023-04-22T10:08:16.412Z,11.23
2023-04-22T10:10:45.971Z,11.75
2023-04-22T10:13:14.684Z,12.05
2023-04-22T10:15:45.819Z,12.80
2023-04-22T10:18:21.379Z,12.00
2023-04-22T10:20:51.554Z,12.57
2023-04-22T10:23:22.266Z,11.68
2023-04-22T10:25:52.366Z,10.73
2023-04-22T10:28:23.384Z,12.40
2023-04-22T10:30:52.863Z,12.88
2023-04-22T10:33:42.183Z,13.43
2023-04-22T10:36:16.751Z,13.02
2023-04-22T10:39:21.465Z,11.38
2023-04-22T10:41:54.694Z,14.18
2023-04-22T10:44:24.022Z,13.68
2023-04-22T10:47:01.126Z,12.20
2023-04-22T10:49:36.155Z,12.40
2023-04-22T10:52:06.543Z,11.98
2023-04-22T10:54:57.837Z,11.60
2023-04-22T10:57:37.482Z,12.50
2023-04-22T11:00:31.022Z,13.55
2023-04-22T11:03:12.986Z,12.75
2023-04-22T11:05:43.768Z,14.82
2023-04-22T11:08:23.679Z,15.48
2023-04-22T11:10:54.223Z,10.80
2023-04-22T11:13:23.754Z,12.48
2023-04-22T11:15:55.862Z,12.73
2023-04-22T11:18:26.358Z,13.15
2023-04-22T11:20:57.145Z,13.50
2023-04-22T11:23:27.805Z,13.10
2023-04-22T11:25:57.956Z,12.93
2023-04-22T11:28:27.080Z,12.73
2023-04-22T11:31:03.909Z,12.13
2023-04-22T11:33:34.756Z,12.77
2023-04-22T11:36:05.187Z,13.77
2023-04-22T11:38:34.334Z,14.63
2023-04-22T11:41:05.106Z,14.70
2023-04-22T11:43:33.788Z,15.85
2023-04-22T11:46:02.667Z,12.55
2023-04-22T11:48:31.398Z,14.30
2023-04-22T11:51:13.053Z,12.30
2023-04-22T11:53:50.984Z,11.70
2023-04-22T11:56:19.732Z,12.00
2023-04-22T11:58:49.397Z,12.45
2023-04-22T12:01:19.756Z,13.93
2023-04-22T12:03:50.505Z,14.68
2023-04-22T12:06:20.857Z,12.60
2023-04-22T12:08:51.460Z,12.85
2023-04-22T12:11:22.820Z,13.82
2023-04-22T12:13:51.569Z,13.77
2023-04-22T12:16:20.903Z,12.63
2023-04-22T12:18:53.951Z,13.88
2023-04-22T12:21:26.076Z,13.20
2023-04-22T12:23:56.206Z,12.43
2023-04-22T12:26:27.318Z,12.95
2023-04-22T12:28:58.102Z,12.07
2023-04-22T12:31:27.670Z,13.13
2023-04-22T12:33:58.136Z,12.38
2023-04-22T12:36:28.492Z,13.52
2023-04-22T12:38:57.245Z,12.95
2023-04-22T12:41:25.970Z,13.73
2023-04-22T12:43:55.441Z,12.07
2023-04-22T12:46:24.494Z,11.85
2023-04-22T12:48:53.269Z,10.85
2023-04-22T12:51:22.574Z,11.57
2023-04-22T12:53:52.657Z,10.40
2023-04-22T12:56:21.465Z,10.82
2023-04-22T12:58:50.192Z,10.73
2023-04-22T13:01:19.011Z,10.65
2023-04-22T13:03:47.969Z,10.10
2023-04-22T13:06:16.988Z,9.07
2023-04-22T13:08:45.738Z,10.18
2023-04-22T13:11:16.050Z,10.95
2023-04-22T13:13:44.796Z,11.57
2023-04-22T13:16:13.495Z,10.05
2023-04-22T13:18:42.350Z,10.07
2023-04-22T13:21:13.831Z,9.82
2023-04-22T13:23:43.633Z,10.30
2023-04-22T13:26:12.661Z,9.38
2023-04-22T13:28:43.478Z,10.15
2023-04-22T13:31:12.232Z,9.90
2023-04-22T13:33:40.993Z,10.55
2023-04-22T13:36:10.142Z,11.18
2023-04-22T13:38:38.984Z,11.50
2023-04-22T13:41:08.045Z,11.38
2023-04-22T13:43:36.788Z,11.90
2023-04-22T13:46:07.101Z,11.85
2023-04-22T13:48:35.906Z,12.73
2023-04-22T13:51:04.857Z,11.57
2023-04-22T13:53:34.763Z,11.18
2023-04-22T13:56:03.547Z,10.65
2023-04-22T13:58:32.478Z,12.73
2023-04-22T14:01:01.279Z,11.07
2023-04-22T14:03:32.611Z,12.52
2023-04-22T14:06:01.763Z,10.50
2023-04-22T14:08:30.900Z,10.65
2023-04-22T14:11:00.576Z,12.95
2023-04-22T14:13:29.322Z,9.25
2023-04-22T14:15:58.183Z,11.57
2023-04-22T14:18:27.423Z,14.48
2023-04-22T14:20:58.158Z,14.95
2023-04-22T14:23:26.903Z,16.40
2023-04-22T14:25:57.050Z,14.98
2023-04-22T14:28:25.929Z,15.93
2023-04-22T14:30:54.974Z,18.10
2023-04-22T14:33:25.521Z,21.52
2023-04-22T14:35:54.946Z,20.00
2023-04-22T14:38:25.407Z,20.45
2023-04-22T14:40:54.371Z,21.30
2023-04-22T14:43:23.096Z,19.67
2023-04-22T14:45:52.976Z,20.05
2023-04-22T14:48:25.015Z,21.38
2023-04-22T14:50:53.787Z,18.75
2023-04-22T14:53:22.623Z,18.58
2023-04-22T14:55:52.883Z,18.50
2023-04-22T14:58:24.003Z,20.08
2023-04-22T15:00:52.804Z,20.10
2023-04-22T15:03:22.107Z,18.35
2023-04-22T15:05:52.588Z,19.08
2023-04-22T15:08:21.806Z,19.30
2023-04-22T15:10:51.987Z,20.20
2023-04-22T15:13:21.035Z,19.30
2023-04-22T15:15:49.882Z,19.20
2023-04-22T15:18:18.642Z,19.20
2023-04-22T15:20:47.452Z,19.48
2023-04-22T15:23:16.442Z,19.27
2023-04-22T15:25:45.161Z,19.05
2023-04-22T15:28:15.833Z,18.48
2023-04-22T15:30:44.654Z,19.48
2023-04-22T15:33:13.403Z,31.77
2023-04-22T15:35:45.168Z,18.33
2023-04-22T15:38:14.273Z,21.85
2023-04-22T15:40:42.994Z,25.20
2023-04-22T15:43:17.178Z,19.27
2023-04-22T15:45:45.986Z,19.83
2023-04-22T15:48:14.683Z,20.60
2023-04-22T15:50:43.457Z,21.23
2023-04-22T15:53:12.488Z,20.30
2023-04-22T15:55:41.247Z,21.48
2023-04-22T15:58:10.095Z,21.30
2023-04-22T16:00:41.272Z,19.05
2023-04-22T16:03:10.771Z,23.45
2023-04-22T16:05:39.688Z,19.88
2023-04-22T16:08:09.348Z,19.38
2023-04-22T16:10:38.164Z,21.95
2023-04-22T16:13:06.855Z,17.88
2023-04-22T16:15:35.786Z,18.75
2023-04-22T16:18:06.412Z,17.33
2023-04-22T16:20:35.226Z,18.20
2023-04-22T16:23:03.943Z,20.83
2023-04-22T16:25:32.767Z,19.42
2023-04-22T16:28:01.536Z,18.95
2023-04-22T16:30:30.258Z,19.83
2023-04-22T16:32:59.138Z,19.88
2023-04-22T16:35:29.468Z,19.08
2023-04-22T16:37:58.177Z,17.65
2023-04-22T16:40:27.006Z,16.83
2023-04-22T16:42:57.154Z,15.98
2023-04-22T16:45:26.107Z,17.52
2023-04-22T16:47:54.906Z,18.60
2023-04-22T16:50:23.673Z,15.80
2023-04-22T16:52:53.872Z,16.70
2023-04-22T16:55:22.752Z,16.85
2023-04-22T16:57:51.425Z,17.77
2023-04-22T17:00:21.046Z,21.10
2023-04-22T17:02:49.880Z,16.88
2023-04-22T17:05:18.956Z,15.52
2023-04-22T17:07:47.925Z,17.77
2023-04-22T17:10:18.325Z,17.65
2023-04-22T17:12:47.671Z,21.05
2023-04-22T17:15:16.511Z,18.83
2023-04-22T17:17:45.338Z,19.20
2023-04-22T17:20:14.168Z,20.00
2023-04-22T17:22:42.937Z,19.45
2023-04-22T17:25:12.484Z,17.90
2023-04-22T17:27:42.704Z,18.70
2023-04-22T17:30:12.177Z,22.05
2023-04-22T17:32:41.275Z,20.85
2023-04-22T17:35:10.960Z,22.20
2023-04-22T17:37:39.963Z,22.05
2023-04-22T17:40:10.033Z,20.65
2023-04-22T17:42:45.977Z,20.50
2023-04-22T17:45:16.804Z,19.52
2023-04-22T17:47:47.649Z,18.48
2023-04-22T17:50:16.571Z,18.95
2023-04-22T17:52:45.494Z,16.42
2023-04-22T17:55:14.195Z,19.15
2023-04-22T17:57:43.014Z,18.02
2023-04-22T18:00:14.619Z,20.88
2023-04-22T18:02:45.001Z,18.75
2023-04-22T18:05:13.902Z,19.52
2023-04-22T18:07:42.679Z,22.25
2023-04-22T18:10:12.956Z,21.50
2023-04-22T18:12:42.147Z,20.58
2023-04-22T18:15:12.300Z,20.02
2023-04-22T18:17:41.079Z,21.55
2023-04-22T18:20:18.571Z,19.17
2023-04-22T18:22:49.465Z,20.50
2023-04-22T18:25:19.344Z,22.42
2023-04-22T18:27:50.212Z,22.55
2023-04-22T18:30:19.119Z,24.15
2023-04-22T18:32:48.276Z,20.92
2023-04-22T18:35:20.109Z,22.25
2023-04-22T18:37:48.950Z,24.35
2023-04-22T18:40:18.574Z,22.95
2023-04-22T18:42:47.961Z,26.20
2023-04-22T18:45:16.912Z,21.55
2023-04-22T18:47:47.164Z,20.05
2023-04-22T18:50:17.526Z,21.35
2023-04-22T18:52:46.415Z,19.77
2023-04-22T18:55:15.163Z,21.77
2023-04-22T18:57:43.935Z,22.17
2023-04-22T19:00:13.960Z,24.58
2023-04-22T19:02:44.251Z,21.27
2023-04-22T19:05:14.768Z,22.45
2023-04-22T19:07:45.748Z,24.83
2023-04-22T19:10:14.651Z,20.15
2023-04-22T19:12:45.409Z,18.77
2023-04-22T19:15:14.591Z,18.45
2023-04-22T19:17:43.764Z,20.80
2023-04-22T19:20:13.025Z,20.33
2023-04-22T19:22:41.957Z,23.35
2023-04-22T19:25:12.591Z,24.58
2023-04-22T19:27:41.351Z,26.67
2023-04-22T19:30:11.770Z,25.40
2023-04-22T19:32:40.649Z,25.27
2023-04-22T19:35:12.592Z,23.73
2023-04-22T19:37:41.629Z,24.70
2023-04-22T19:40:15.156Z,26.25
2023-04-22T19:42:45.455Z,27.00
2023-04-22T19:45:14.250Z,29.90
2023-04-22T19:47:43.436Z,26.67
2023-04-22T19:50:13.011Z,28.25
2023-04-22T19:52:43.319Z,26.65
2023-04-22T19:55:14.582Z,30.92
2023-04-22T19:57:43.840Z,27.55
2023-04-22T20:00:13.626Z,24.00
2023-04-22T20:02:43.807Z,23.55
2023-04-22T20:05:13.559Z,23.25
2023-04-22T20:07:44.805Z,23.70
2023-04-22T20:10:16.930Z,23.55
2023-04-22T20:12:46.374Z,24.30
2023-04-22T20:15:15.595Z,25.10
2023-04-22T20:17:45.050Z,21.98
2023-04-22T20:20:15.681Z,23.45
2023-04-22T20:22:45.715Z,21.90
2023-04-22T20:25:18.320Z,21.55
2023-04-22T20:27:47.383Z,21.38
2023-04-22T20:30:16.734Z,22.83
2023-04-22T20:32:45.749Z,21.35
2023-04-22T20:35:16.780Z,22.55
2023-04-22T20:37:47.395Z,21.50
2023-04-22T20:40:19.048Z,22.60
2023-04-22T20:42:47.788Z,21.23
2023-04-22T20:45:18.016Z,20.17
2023-04-22T20:47:47.345Z,23.85
2023-04-22T20:50:16.287Z,20.35
2023-04-22T20:52:45.267Z,21.27
2023-04-22T20:55:14.137Z,26.63
2023-04-22T20:57:44.284Z,27.45
2023-04-22T21:00:14.387Z,26.02
2023-04-22T21:02:44.068Z,26.52
2023-04-22T21:05:13.784Z,25.17
2023-04-22T21:07:44.733Z,25.70
2023-04-22T21:10:14.374Z,26.52
2023-04-22T21:12:45.203Z,25.42
2023-04-22T21:15:14.868Z,24.50
2023-04-22T21:17:51.844Z,25.85
2023-04-22T21:20:24.314Z,24.05
2023-04-22T21:22:55.234Z,23.50
2023-04-22T21:25:24.578Z,22.77
2023-04-22T21:27:55.536Z,21.70
2023-04-22T21:30:25.176Z,21.95
2023-04-22T21:32:54.321Z,24.80
2023-04-22T21:35:24.285Z,23.38
2023-04-22T21:37:54.200Z,25.02
2023-04-22T21:40:23.106Z,24.00
2023-04-22T21:42:51.952Z,24.83
2023-04-22T21:45:22.170Z,23.20
2023-04-22T21:47:50.931Z,23.52
2023-04-22T21:50:20.909Z,25.23
2023-04-22T21:52:50.571Z,25.65
2023-04-22T21:55:19.889Z,25.30
2023-04-22T21:57:48.627Z,22.92
2023-04-22T22:00:18.695Z,20.45
2023-04-22T22:02:50.535Z,19.73
2023-04-22T22:05:19.537Z,17.70
2023-04-22T22:07:48.959Z,17.50
2023-04-22T22:10:19.560Z,17.30
2023-04-22T22:12:48.538Z,17.67
2023-04-22T22:15:17.899Z,16.20
2023-04-22T22:17:46.880Z,15.43
2023-04-22T22:20:18.302Z,15.60
2023-04-22T22:22:47.365Z,16.20
2023-04-22T22:25:17.279Z,17.07
2023-04-22T22:27:47.330Z,15.80
2023-04-22T22:30:16.722Z,15.33
2023-04-22T22:32:45.948Z,15.18
2023-04-22T22:35:14.780Z,15.03
2023-04-22T22:37:46.010Z,16.85
2023-04-22T22:40:14.897Z,16.17
2023-04-22T22:42:43.572Z,15.45
2023-04-22T22:45:13.209Z,16.03
2023-04-22T22:47:42.063Z,17.93
2023-04-22T22:50:11.583Z,16.20
2023-04-22T22:52:41.203Z,16.55
2023-04-22T22:55:11.981Z,16.00
2023-04-22T22:57:40.747Z,16.42
2023-04-22T23:00:12.036Z,16.70
2023-04-22T23:02:40.953Z,16.08
2023-04-22T23:05:11.241Z,16.23
2023-04-22T23:07:40.099Z,16.25
2023-04-22T23:10:11.614Z,15.75
2023-04-22T23:12:40.498Z,17.20
2023-04-22T23:15:09.872Z,17.13
2023-04-22T23:17:39.950Z,16.63
2023-04-22T23:20:11.116Z,16.33
2023-04-22T23:22:40.877Z,17.73
2023-04-22T23:25:13.064Z,16.93
2023-04-22T23:27:42.767Z,18.77
2023-04-22T23:30:12.231Z,17.13
2023-04-22T23:32:41.967Z,17.00
2023-04-22T23:35:14.061Z,17.53
2023-04-22T23:37:45.669Z,16.97
2023-04-22T23:40:16.350Z,17.30
2023-04-22T23:42:45.118Z,18.10
2023-04-22T23:45:14.032Z,19.33
2023-04-22T23:47:42.837Z,18.30
2023-04-22T23:50:14.215Z,18.47
2023-04-22T23:52:42.999Z,18.40
2023-04-22T23:55:14.060Z,18.03
2023-04-22T23:57:44.941Z,17.20
